Latest Weather Observations for Kingaroy

IDQ60901

Issued at 7:21 am EST Wednesday 23 October 2019 (issued every 10 minutes, with the page automatically refreshed every 10 minutes)

About weather observations | Map of Brisbane area stations | Latest observations for Brisbane area | Other Formats
Station Details ID: 040922 Name: KINGAROY AIRPORT Lat: -26.57 Lon: 151.84 Height: 433.67 m
Data from the previous 72 hours. | See also: Recent months at Kingaroy
Date/Time
EST
Temp
°C
App
Temp
°C
Dew
Point
°C
Rel
Hum
%
Delta-T
°C
Wind Press
QNH
hPa
Press
MSL
hPa
Rain since
9am
mm
Dir  Spd
km/h
Gust
km/h
Spd
kts
Gust
kts
23/07:12am 15.8 15.6 13.1 84 1.5 SSW 6 9 3 5 1025.1 1023.6 0.0
23/07:00am 15.2 15.3 12.7 85 1.4 SSW 4 7 2 4 1025.0 1023.5 0.0
23/06:30am 13.2 13.5 10.9 86 1.2 CALM 0 0 0 0 1024.7 1023.2 0.0
23/06:00am 10.3 10.2 9.4 94 0.5 CALM 0 0 0 0 1024.7 1023.2 0.0
23/05:30am 9.4 8.7 8.6 95 0.4 ESE 2 6 1 3 1024.6 1023.1 0.0
23/05:00am 9.3 8.2 8.5 95 0.4 SE 4 6 2 3 1024.4 1022.9 0.0
23/04:30am 9.5 9.2 8.6 94 0.4 CALM 0 0 0 0 1024.1 1022.6 0.0
23/04:00am 9.6 9.2 8.2 91 0.7 CALM 0 0 0 0 1024.0 1022.5 0.0
23/03:30am 10.0 8.6 8.8 92 0.6 S 6 7 3 4 1023.9 1022.4 0.0
23/03:00am 10.6 9.3 9.2 91 0.7 SE 6 7 3 4 1023.8 1022.2 0.0
23/02:30am 10.7 10.2 9.3 91 0.7 SSE 2 7 1 4 1023.9 1022.4 0.0
23/02:00am 11.5 11.4 9.4 87 1.1 CALM 0 0 0 0 1024.0 1022.5 0.0
23/01:30am 12.3 12.5 10.7 90 0.9 CALM 0 0 0 0 1024.1 1022.6 0.0
23/01:00am 12.6 12.0 10.3 86 1.2 S 4 6 2 3 1024.2 1022.7 0.0
23/12:30am 13.8 13.0 11.8 88 1.1 SE 7 11 4 6 1024.2 1022.7 0.0
23/12:00am 13.4 12.5 10.6 83 1.5 SSE 6 9 3 5 1024.7 1023.2 0.0
 
Date/Time
EST
Temp
°C
App
Temp
°C
Dew
Point
°C
Rel
Hum
%
Delta-T
°C
Wind Press
QNH
hPa
Press
MSL
hPa
Rain since
9am
mm
Dir  Spd
km/h
Gust
km/h
Spd
kts
Gust
kts
22/11:30pm 14.0 14.2 10.6 80 1.8 CALM 0 7 0 4 1025.0 1023.5 0.0
22/11:00pm 14.6 13.5 10.6 77 2.1 ESE 7 11 4 6 1025.0 1023.5 0.0
22/10:30pm 15.1 14.0 10.7 75 2.4 E 7 15 4 8 1025.0 1023.5 0.0
22/10:00pm 15.1 13.8 10.1 72 2.7 ESE 7 11 4 6 1025.0 1023.5 0.0
22/09:30pm 16.1 15.0 10.8 71 2.9 E 7 17 4 9 1024.8 1023.3 0.0
22/09:00pm 16.1 14.9 10.4 69 3.1 ESE 7 13 4 7 1024.8 1023.3 0.0
22/08:30pm 17.2 16.2 10.3 64 3.7 ENE 6 11 3 6 1024.8 1023.3 0.0
22/08:00pm 17.8 16.6 10.2 61 4.1 ENE 7 13 4 7 1024.5 1023.0 0.0
22/07:30pm 18.8 16.9 10.4 58 4.6 ENE 11 19 6 10 1024.0 1022.5 0.0
22/07:00pm 19.7 16.9 10.1 54 5.2 E 15 20 8 11 1023.5 1022.0 0.0
22/06:30pm 20.6 18.1 8.3 45 6.6 E 11 22 6 12 1023.2 1021.7 0.0
22/06:00pm 21.6 18.8 7.1 39 7.6 ESE 11 15 6 8 1022.7 1021.2 0.0
22/05:30pm 23.2 20.0 6.9 35 8.6 ESE 13 19 7 10 1022.3 1020.8 0.0
22/05:00pm 23.7 19.8 6.9 34 8.9 ESE 17 24 9 13 1021.9 1020.4 0.0
22/04:30pm 24.7 21.6 7.4 33 9.3 ESE 13 20 7 11 1021.6 1020.0 0.0
22/04:00pm 24.8 20.4 6.5 31 9.6 ESE 19 28 10 15 1021.4 1019.8 0.0
22/03:30pm 24.3 19.9 6.6 32 9.3 ESE 19 26 10 14 1021.4 1019.8 0.0
22/03:00pm 24.0 19.5 6.3 32 9.2 E 19 26 10 14 1021.6 1020.0 0.0
22/02:30pm 25.4 21.4 6.6 30 10.0 SE 17 26 9 14 1021.6 1020.0 0.0
22/02:00pm 25.7 21.3 7.3 31 9.9 SSE 20 37 11 20 1021.9 1020.4 0.0
22/01:30pm 24.3 19.8 7.0 33 9.2 S 20 33 11 18 1022.2 1020.7 0.0
22/01:00pm 25.5 21.2 7.1 31 9.8 SE 19 28 10 15 1022.6 1021.1 0.0
22/12:30pm 25.3 22.3 7.9 33 9.5 ESE 13 22 7 12 1022.9 1021.4 0.0
22/12:00pm 25.0 21.0 8.1 34 9.2 SSE 19 26 10 14 1023.4 1021.9 0.0
22/11:30am 23.3 21.1 7.8 37 8.3 ENE 9 20 5 11 1023.9 1022.4 0.0
22/11:00am 24.1 21.2 9.7 40 8.0 ESE 15 24 8 13 1024.3 1022.8 0.0
22/10:30am 23.0 20.0 9.4 42 7.5 E 15 20 8 11 1024.7 1023.2 0.0
22/10:00am 21.6 18.8 8.5 43 7.0 ENE 13 24 7 13 1025.2 1023.7 0.0
22/09:30am 21.8 19.0 10.0 47 6.5 ESE 15 24 8 13 1025.6 1024.1 0.0
22/09:00am 20.2 17.9 10.6 54 5.3 ESE 13 24 7 13 1025.8 1024.4 0.0
22/08:30am 20.0 17.2 10.1 53 5.4 ESE 15 24 8 13 1025.8 1024.4 0.0
22/08:00am 18.6 15.5 10.2 58 4.6 ESE 17 33 9 18 1025.8 1024.4 0.0
22/07:30am 17.7 15.3 11.3 66 3.5 ESE 15 20 8 11 1025.7 1024.2 0.0
22/07:00am 16.3 14.9 12.1 76 2.3 SSE 11 15 6 8 1025.6 1024.1 0.0
22/06:30am 12.9 11.9 11.1 89 1.0 S 7 9 4 5 1025.4 1023.9 0.0
22/06:00am 10.3 9.4 9.2 93 0.6 E 4 6 2 3 1025.4 1023.9 0.0
22/05:30am 7.8 6.3 6.9 94 0.4 NE 4 6 2 3 1025.2 1023.7 0.0
22/05:00am 8.1 7.5 7.2 94 0.4 CALM 0 6 0 3 1025.0 1023.5 0.0
22/04:30am 8.3 6.9 7.1 92 0.6 S 4 9 2 5 1024.6 1023.1 0.0
22/04:00am 9.3 7.6 8.2 93 0.5 SSE 7 9 4 5 1024.3 1022.8 0.0
22/03:30am 9.3 7.5 7.9 91 0.7 SSE 7 9 4 5 1024.2 1022.7 0.0
22/03:00am 9.6 7.9 8.5 93 0.5 SSE 7 11 4 6 1024.1 1022.6 0.0
22/02:30am 9.7 7.9 7.8 88 0.9 S 7 9 4 5 1024.3 1022.8 0.0
22/02:00am 10.6 8.9 8.4 86 1.1 SSE 7 9 4 5 1024.4 1022.9 0.0
22/01:30am 10.9 8.9 8.7 86 1.1 S 9 11 5 6 1024.7 1023.2 0.0
22/01:00am 11.4 9.8 8.8 84 1.3 S 7 9 4 5 1025.1 1023.6 0.0
22/12:30am 11.7 10.1 8.7 82 1.5 S 7 7 4 4 1025.4 1023.9 0.0
22/12:00am 12.1 10.7 8.8 80 1.7 SSW 6 6 3 3 1025.6 1024.1 0.0
 
Date/Time
EST
Temp
°C
App
Temp
°C
Dew
Point
°C
Rel
Hum
%
Delta-T
°C
Wind Press
QNH
hPa
Press
MSL
hPa
Rain since
9am
mm
Dir  Spd
km/h
Gust
km/h
Spd
kts
Gust
kts
21/11:30pm 12.3 10.8 8.6 78 1.9 S 6 7 3 4 1025.7 1024.2 0.0
21/11:00pm 13.2 11.8 8.9 75 2.2 SSE 6 7 3 4 1025.7 1024.2 0.0
21/10:30pm 13.6 12.2 8.9 73 2.4 SSW 6 9 3 5 1025.8 1024.4 0.0
21/10:00pm 13.2 12.7 7.9 70 2.7 CALM 0 0 0 0 1025.8 1024.4 0.0
21/09:30pm 14.0 12.7 7.5 65 3.3 ESE 4 6 2 3 1025.9 1024.5 0.0
21/09:00pm 15.1 13.3 7.9 62 3.7 ESE 7 13 4 7 1026.1 1024.6 0.0
21/08:30pm 15.9 12.9 7.9 59 4.1 E 13 19 7 10 1025.6 1024.1 0.0
21/08:00pm 16.7 13.8 8.1 57 4.4 E 13 20 7 11 1025.2 1023.7 0.0
21/07:30pm 17.6 13.6 8.2 54 4.9 ESE 19 28 10 15 1024.7 1023.2 0.0
21/07:00pm 18.2 14.3 8.5 53 5.1 E 19 26 10 14 1024.2 1022.7 0.0
21/06:30pm 18.8 15.5 7.9 49 5.7 ESE 15 22 8 12 1023.7 1022.1 0.0
21/06:00pm 19.8 15.7 7.9 46 6.2 ESE 19 30 10 16 1023.1 1021.6 0.0
21/05:30pm 21.1 16.8 7.7 42 7.1 ESE 20 30 11 16 1022.6 1021.1 0.0
21/05:00pm 22.6 18.0 8.0 39 7.8 ESE 22 33 12 18 1022.0 1020.5 0.0
21/04:30pm 23.8 20.0 7.4 35 8.8 SE 17 28 9 15 1021.7 1020.1 0.0
21/04:00pm 24.2 19.1 6.0 31 9.5 ESE 22 30 12 16 1021.6 1020.0 0.0
21/03:30pm 24.7 20.6 6.0 30 9.8 SE 17 32 9 17 1021.4 1019.8 0.0
21/03:00pm 24.9 20.4 6.1 30 9.8 SE 19 28 10 15 1021.4 1019.8 0.0
21/02:30pm 25.4 21.7 6.1 29 10.2 SE 15 24 8 13 1021.6 1020.0 0.0
21/02:00pm 23.9 20.0 5.3 30 9.5 E 15 24 8 13 1021.9 1020.4 0.0
21/01:30pm 25.1 22.1 5.8 29 10.1 SE 11 17 6 9 1022.2 1020.7 0.0
21/01:00pm 24.7 21.2 7.4 33 9.3 SE 15 30 8 16 1022.6 1021.1 0.0
21/12:30pm 23.9 19.5 7.5 35 8.8 SSE 20 33 11 18 1023.0 1021.5 0.0
21/12:00pm 23.6 20.1 8.8 39 8.1 ESE 17 26 9 14 1023.3 1021.8 0.0
21/11:30am 22.0 18.2 9.2 44 7.0 SE 19 28 10 15 1023.9 1022.4 0.0
21/11:00am 23.3 20.0 11.0 46 7.0 ESE 19 30 10 16 1024.2 1022.7 0.0
21/10:30am 21.3 18.7 10.8 51 5.9 SE 15 22 8 12 1024.7 1023.2 0.0
21/10:00am 21.5 18.5 10.6 50 6.1 ESE 17 39 9 21 1024.9 1023.4 0.0
21/09:30am 20.7 17.4 10.8 53 5.5 SE 19 26 10 14 1025.1 1023.6 0.0
21/09:00am 19.7 16.4 11.7 60 4.5 ESE 20 32 11 17 1025.3 1023.8 0.0
21/08:30am 20.3 17.3 12.0 59 4.7 ESE 19 32 10 17 1025.0 1023.5 0.0
21/08:00am 18.5 14.1 11.8 65 3.7 E 26 33 14 18 1024.8 1023.3 0.0
21/07:30am 17.9 15.4 12.4 70 3.1 ESE 17 30 9 16 1024.5 1023.0 0.0
21/07:00am 16.7 13.7 12.0 74 2.6 ESE 19 28 10 15 1024.3 1022.8 0.0
21/06:30am 16.7 14.6 12.5 76 2.4 SE 15 24 8 13 1024.2 1022.7 0.0
21/06:00am 16.0 14.3 12.6 80 1.9 SE 13 19 7 10 1024.0 1022.5 0.0
21/05:30am 15.8 14.1 12.5 81 1.9 SE 13 22 7 12 1023.5 1022.0 0.0
21/05:00am 16.0 14.3 12.6 80 1.9 SE 13 28 7 15 1023.1 1021.6 0.0
21/04:30am 15.9 14.3 12.8 82 1.8 SE 13 20 7 11 1022.7 1021.2 0.0
21/04:00am 16.3 14.8 13.2 82 1.8 ESE 13 20 7 11 1022.6 1021.1 0.0
21/03:30am 16.1 15.0 13.0 82 1.8 ESE 11 19 6 10 1022.4 1020.9 0.0
21/03:18am 16.2 15.1 13.1 82 1.8 SE 11 20 6 11 1022.3 1020.8 0.0
21/03:00am 16.4 15.8 13.5 83 1.7 ESE 9 15 5 8 1022.4 1020.9 0.0
21/02:59am 16.4 15.4 13.5 83 1.7 ESE 11 15 6 8 1022.4 1020.9 0.0
21/02:30am 16.4 15.8 13.5 83 1.7 SE 9 15 5 8 1022.4 1020.9 0.0
21/02:00am 16.6 15.2 13.3 81 1.9 ESE 13 20 7 11 1022.4 1020.9 0.0
21/01:30am 16.8 14.9 13.1 79 2.1 ESE 15 24 8 13 1022.5 1021.0 0.0
21/01:00am 17.0 16.3 13.3 79 2.1 ESE 9 15 5 8 1022.7 1021.2 0.0
21/12:30am 16.8 15.4 13.5 81 1.9 ESE 13 22 7 12 1022.7 1021.2 0.0
21/12:00am 16.9 14.7 13.4 80 2.0 ESE 17 24 9 13 1022.7 1021.2 0.0
 
Date/Time
EST
Temp
°C
App
Temp
°C
Dew
Point
°C
Rel
Hum
%
Delta-T
°C
Wind Press
QNH
hPa
Press
MSL
hPa
Rain since
9am
mm
Dir  Spd
km/h
Gust
km/h
Spd
kts
Gust
kts
20/11:30pm 16.7 14.5 13.2 80 2.0 ESE 17 30 9 16 1022.6 1021.1 0.0
20/11:00pm 16.8 14.0 13.1 79 2.1 ESE 20 30 11 16 1022.7 1021.2 0.0
20/10:30pm 16.9 14.6 13.0 78 2.2 ESE 17 28 9 15 1022.7 1021.2 0.0
20/10:00pm 17.3 15.1 13.2 77 2.3 ESE 17 24 9 13 1022.7 1021.2 0.0
20/09:30pm 17.6 15.9 13.5 77 2.4 ESE 15 26 8 14 1022.6 1021.1 0.0
20/09:00pm 18.3 16.2 13.6 74 2.7 ESE 17 24 9 13 1022.5 1021.0 0.0
20/08:30pm 18.2 16.3 12.9 71 3.0 ESE 15 22 8 12 1022.2 1020.7 0.0
20/08:00pm 18.7 16.3 12.7 68 3.4 ESE 17 28 9 15 1021.7 1020.1 0.0
20/07:57pm 18.7 16.3 12.5 67 3.5 ESE 17 26 9 14 1021.6 1020.0 0.0
20/07:44pm 19.1 16.4 12.8 67 3.6 E 19 26 10 14 1021.3 1019.7 0.0
20/07:30pm 19.6 16.8 13.1 66 3.8 E 20 28 11 15 1020.8 1019.3 0.0
20/07:00pm 21.0 18.3 13.4 62 4.4 ESE 20 28 11 15 1020.1 1018.6 0.0
20/06:30pm 22.1 19.9 12.1 53 5.8 E 15 24 8 13 1018.6 1017.1 0.0
20/06:00pm 23.7 20.2 -1.3 19 11.3 SE 7 13 4 7 1017.8 1016.3 0.0
20/05:30pm 26.6 22.3 -5.1 12 13.8 WSW 9 11 5 6 1017.2 1015.6 0.0
20/05:00pm 27.6 22.5 -5.5 11 14.4 SW 13 20 7 11 1016.8 1015.2 0.0
20/04:30pm 28.2 24.1 -6.3 10 14.9 SW 7 15 4 8 1016.5 1014.9 0.0
20/04:00pm 28.3 24.0 -4.9 11 14.7 SE 9 15 5 8 1016.1 1014.6 0.0
20/03:30pm 28.8 24.1 -4.6 11 14.9 WSW 11 19 6 10 1016.2 1014.7 0.0
20/03:00pm 28.6 22.7 -6.0 10 15.0 SSW 17 32 9 17 1016.2 1014.7 0.0
20/02:30pm 28.6 24.4 -7.3 9 15.2 SSW 7 19 4 10 1016.4 1014.8 0.0
20/02:00pm 28.3 23.0 -7.6 9 15.1 SW 13 24 7 13 1016.6 1015.0 0.0
20/01:30pm 28.7 23.5 -5.9 10 15.1 SW 13 24 7 13 1016.8 1015.2 0.0
20/01:00pm 28.2 22.2 -6.3 10 14.8 WSW 17 35 9 19 1017.2 1015.6 0.0
20/12:30pm 27.9 22.7 -6.5 10 14.7 SW 13 24 7 13 1017.4 1015.8 0.0
20/12:00pm 28.6 22.5 -2.5 13 14.3 WSW 20 30 11 16 1017.7 1016.2 0.0
20/11:30am 28.0 22.8 -6.4 10 14.8 SSW 13 20 7 11 1017.9 1016.4 0.0
20/11:00am 27.0 21.1 -5.9 11 14.1 SW 17 28 9 15 1018.2 1016.7 0.0
20/10:30am 27.7 22.2 -2.2 14 13.8 SSE 17 30 9 16 1018.5 1017.0 0.0
20/10:00am 27.1 22.3 -2.7 14 13.5 SSW 13 32 7 17 1018.8 1017.2 0.0
20/09:30am 24.7 23.0 7.4 33 9.3 WSW 6 11 3 6 1019.1 1017.5 0.0
20/09:00am 21.7 20.2 8.6 43 7.0 SW 6 9 3 5 1019.3 1017.7 0.6
20/08:30am 18.5 19.5 14.4 77 2.4 WNW 2 6 1 3 1019.4 1017.8 0.6
20/08:00am 14.7 15.0 14.5 99 0.1 NW 6 9 3 5 1019.5 1017.9 0.6
20/07:50am 14.3 14.5 14.1 99 0.1 NW 6 7 3 4 1019.5 1017.9 0.6
20/07:45am 13.9 13.9 13.7 99 0.1 NW 6 7 3 4 1019.5 1017.9 0.6
20/07:30am 12.8 13.2 12.6 99 0.1 NW 2 7 1 4 1019.5 1017.9 0.6

Latest Capital City Observations: Canberra | Sydney | Melbourne | Brisbane | Adelaide | Perth | Hobart | Darwin

Other formats

Comma delimited format used in spreadsheet applications
http://www.bom.gov.au/fwo/IDQ60901/IDQ60901.94549.axf

JavaScript Object Notation format (JSON) in row-major order
http://www.bom.gov.au/fwo/IDQ60901/IDQ60901.94549.json

Data quality

Most of these data are generated automatically and are frequently updated. Quality checks on data are not normally performed. It is possible for incorrect values to appear. Refer to information at About Latest Weather Observations and please check the disclaimer before using these data.